Time;durP1;ratioP1;P1;durP2;ratioP2;P2;SDS_P1;SDS_P2;PMS_P1;PMS_P2;Temp;Humidity;BMP_temperature;BMP_pressure;BME280_temperature;BME280_humidity;BME280_pressure;Samples;Min_cycle;Max_cycle;Signal;HPM_P1;HPM_P2
2022/01/08 00:00:11;;;;;;;0.70;0.70;;;;;;;2.25;72.52;100560.81;686405;28;23507;-70
2022/01/08 00:00:36;;;;;;;0.60;0.60;;;;;;;2.26;72.49;100556.34;682594;28;137728;-69
2022/01/08 00:00:58;;;;;;;0.60;0.60;;;;;;;2.27;72.53;100560.69;685754;28;46341;-70
2022/01/08 00:01:19;;;;;;;0.50;0.50;;;;;;;2.28;72.58;100559.72;684794;28;44387;-70
2022/01/08 00:01:40;;;;;;;0.50;0.50;;;;;;;2.29;72.66;100561.41;686115;28;22414;-70
2022/01/08 00:02:03;;;;;;;0.50;0.50;;;;;;;2.27;72.57;100558.00;686554;28;23139;-70
2022/01/08 00:02:24;;;;;;;0.60;0.60;;;;;;;2.27;72.61;100558.00;685213;28;46379;-70
2022/01/08 00:02:45;;;;;;;0.70;0.70;;;;;;;2.30;72.55;100573.75;686113;28;22385;-70
2022/01/08 00:03:06;;;;;;;0.70;0.70;;;;;;;2.34;72.58;100551.22;686351;28;22409;-70
2022/01/08 00:03:28;;;;;;;0.60;0.60;;;;;;;2.32;72.45;100559.34;685854;28;44300;-70
2022/01/08 00:03:51;;;;;;;0.60;0.60;;;;;;;2.30;72.54;100553.28;685321;28;47638;-70
2022/01/08 00:04:12;;;;;;;0.60;0.60;;;;;;;2.32;72.62;100556.66;684487;28;69178;-70
2022/01/08 00:04:34;;;;;;;0.50;0.50;;;;;;;2.32;72.48;100553.13;685618;28;23545;-70
2022/01/08 00:04:58;;;;;;;0.40;0.40;;;;;;;2.32;72.51;100558.47;685740;28;45335;-70
2022/01/08 00:05:19;;;;;;;0.70;0.70;;;;;;;2.31;72.50;100559.47;683322;28;90589;-70
2022/01/08 00:05:41;;;;;;;0.70;0.70;;;;;;;2.31;72.47;100557.63;686985;28;22442;-70
2022/01/08 00:06:02;;;;;;;0.70;0.70;;;;;;;2.33;72.48;100566.34;685651;28;44401;-70
2022/01/08 00:06:23;;;;;;;0.60;0.60;;;;;;;2.35;72.49;100552.88;685512;28;22301;-68
2022/01/08 00:06:45;;;;;;;0.60;0.60;;;;;;;2.38;72.22;100557.13;684976;28;22380;-70
2022/01/08 00:07:07;;;;;;;0.50;0.50;;;;;;;2.37;72.40;100553.63;685659;28;46331;-70
2022/01/08 00:07:28;;;;;;;0.50;0.50;;;;;;;2.36;72.33;100556.41;686589;28;21540;-69
2022/01/08 00:07:49;;;;;;;0.60;0.60;;;;;;;2.36;72.47;100557.25;685635;28;22442;-68
2022/01/08 00:08:11;;;;;;;0.80;0.80;;;;;;;2.36;72.32;100554.59;686053;28;22396;-69
2022/01/08 00:08:32;;;;;;;0.70;0.70;;;;;;;2.36;72.37;100556.41;683059;28;45223;-70
2022/01/08 00:08:53;;;;;;;0.60;0.60;;;;;;;2.35;72.35;100558.22;682823;28;46299;-70
2022/01/08 00:09:14;;;;;;;0.60;0.60;;;;;;;2.33;72.29;100555.69;683352;28;22388;-69
2022/01/08 00:09:36;;;;;;;0.50;0.50;;;;;;;2.34;72.32;100560.03;680379;28;22797;-69
2022/01/08 00:09:58;;;;;;;0.50;0.50;;;;;;;2.35;72.37;100555.53;681215;28;22384;-69
2022/01/08 00:10:19;;;;;;;0.50;0.50;;;;;;;2.36;72.40;100554.59;680117;28;46345;-70
2022/01/08 00:10:40;;;;;;;0.63;0.63;;;;;;;2.36;72.45;100556.41;683638;28;23522;-69
2022/01/08 00:11:02;;;;;;;0.70;0.70;;;;;;;2.35;72.37;100555.53;685414;28;42771;-69
2022/01/08 00:11:26;;;;;;;0.60;0.60;;;;;;;2.35;72.52;100555.53;684876;28;45252;-70
2022/01/08 00:11:47;;;;;;;0.60;0.60;;;;;;;2.34;72.41;100552.03;686002;28;70245;-70
2022/01/08 00:12:08;;;;;;;0.60;0.60;;;;;;;2.36;72.44;100551.91;688579;28;22387;-70
2022/01/08 00:12:30;;;;;;;0.50;0.50;;;;;;;2.38;72.41;100562.44;688143;28;46712;-70
2022/01/08 00:12:51;;;;;;;0.50;0.50;;;;;;;2.37;72.58;100556.28;687094;28;45252;-70
2022/01/08 00:13:12;;;;;;;0.50;0.50;;;;;;;2.38;72.46;100557.13;685982;28;23467;-70
2022/01/08 00:13:34;;;;;;;0.73;0.73;;;;;;;2.39;72.23;100557.00;686720;28;22391;-70
2022/01/08 00:13:56;;;;;;;0.70;0.70;;;;;;;2.40;72.39;100564.03;686524;28;21228;-70
2022/01/08 00:14:19;;;;;;;0.60;0.60;;;;;;;2.40;72.28;100553.38;682543;28;46380;-70
2022/01/08 00:14:40;;;;;;;0.65;0.65;;;;;;;2.41;72.33;100556.88;681520;28;69451;-70
2022/01/08 00:15:01;;;;;;;0.60;0.60;;;;;;;2.42;72.35;100553.25;683550;28;21526;-70
2022/01/08 00:15:22;;;;;;;0.50;0.50;;;;;;;2.40;72.37;100553.38;682355;28;44348;-70
2022/01/08 00:15:44;;;;;;;0.50;0.50;;;;;;;2.40;72.37;100548.03;683807;28;21523;-69
2022/01/08 00:16:05;;;;;;;0.60;0.60;;;;;;;2.42;72.36;100551.41;683368;28;46368;-69
2022/01/08 00:16:26;;;;;;;0.80;0.80;;;;;;;2.42;72.49;100542.56;685532;28;21231;-69
2022/01/08 00:16:48;;;;;;;0.70;0.70;;;;;;;2.41;72.45;100547.03;684989;28;23507;-70
2022/01/08 00:17:10;;;;;;;0.60;0.60;;;;;;;2.41;72.31;100541.72;686098;28;22413;-70
2022/01/08 00:17:31;;;;;;;0.68;0.68;;;;;;;2.41;72.43;100541.72;685650;28;45264;-70
2022/01/08 00:17:52;;;;;;;0.60;0.60;;;;;;;2.43;72.51;100553.09;685873;28;23469;-69
2022/01/08 00:18:13;;;;;;;0.60;0.60;;;;;;;2.45;72.40;100542.31;685795;28;22420;-70
2022/01/08 00:18:36;;;;;;;0.60;0.60;;;;;;;2.46;72.29;100547.53;687795;28;1559;-70
2022/01/08 00:18:57;;;;;;;0.70;0.70;;;;;;;2.46;72.45;100544.84;684859;28;46284;-70
2022/01/08 00:19:19;;;;;;;0.70;0.70;;;;;;;2.47;72.24;100543.84;685799;28;22437;-69
2022/01/08 00:19:40;;;;;;;0.70;0.70;;;;;;;2.46;72.18;100552.84;682770;28;21327;-70
2022/01/08 00:20:05;;;;;;;0.60;0.60;;;;;;;2.46;72.42;100547.53;683442;28;22420;-70
2022/01/08 00:20:27;;;;;;;0.60;0.60;;;;;;;2.47;72.25;100557.19;679737;28;137980;-70
2022/01/08 00:20:48;;;;;;;0.60;0.60;;;;;;;2.47;72.29;100546.53;679719;29;45294;-70
2022/01/08 00:21:10;;;;;;;0.50;0.50;;;;;;;2.52;72.29;100557.66;680009;28;23416;-69
2022/01/08 00:21:32;;;;;;;0.60;0.60;;;;;;;2.53;72.10;100543.34;682133;28;23147;-70
2022/01/08 00:21:53;;;;;;;0.80;0.80;;;;;;;2.55;72.20;100553.03;682033;28;43756;-70
2022/01/08 00:22:14;;;;;;;0.70;0.70;;;;;;;2.54;72.06;100557.53;682910;28;22394;-70
2022/01/08 00:22:35;;;;;;;0.70;0.70;;;;;;;2.54;72.09;100544.22;684643;28;24200;-70
2022/01/08 00:22:57;;;;;;;0.60;0.60;;;;;;;2.55;72.06;100550.38;686740;28;23442;-70
2022/01/08 00:23:18;;;;;;;0.55;0.55;;;;;;;2.54;72.11;100554.88;684250;28;67347;-70
2022/01/08 00:23:39;;;;;;;0.50;0.50;;;;;;;2.53;72.11;100554.00;683498;28;22411;-70
2022/01/08 00:24:01;;;;;;;0.40;0.40;;;;;;;2.53;72.05;100550.50;683732;28;22420;-69
2022/01/08 00:24:23;;;;;;;0.63;0.63;;;;;;;2.55;72.15;100555.72;682968;28;23471;-70
2022/01/08 00:24:44;;;;;;;0.70;0.70;;;;;;;2.57;72.10;100551.09;682125;28;46345;-70
2022/01/08 00:25:06;;;;;;;0.60;0.60;;;;;;;2.55;71.85;100550.38;683576;28;22397;-70
2022/01/08 00:25:27;;;;;;;0.60;0.60;;;;;;;2.52;72.13;100547.00;682701;28;69533;-70
2022/01/08 00:25:49;;;;;;;0.50;0.50;;;;;;;2.52;71.95;100548.81;685796;28;46352;-69
2022/01/08 00:26:11;;;;;;;0.50;0.50;;;;;;;2.53;72.04;100554.00;684794;28;44408;-69
2022/01/08 00:26:32;;;;;;;0.50;0.50;;;;;;;2.53;72.11;100545.16;686231;28;45245;-69
2022/01/08 00:26:53;;;;;;;0.60;0.60;;;;;;;2.53;71.95;100550.50;685740;28;21543;-70
2022/01/08 00:27:14;;;;;;;0.70;0.70;;;;;;;2.53;71.89;100555.84;686131;28;22408;-69
2022/01/08 00:27:36;;;;;;;0.70;0.70;;;;;;;2.47;72.16;100543.84;685813;28;21596;-70
2022/01/08 00:27:58;;;;;;;0.70;0.70;;;;;;;2.49;72.05;100549.94;684207;28;69418;-69
2022/01/08 00:28:19;;;;;;;0.60;0.60;;;;;;;2.48;72.11;100547.38;685709;28;23058;-70
2022/01/08 00:28:41;;;;;;;0.52;0.52;;;;;;;2.47;72.32;100545.69;682965;28;22425;-68
2022/01/08 00:29:03;;;;;;;0.50;0.50;;;;;;;2.45;72.20;100545.81;683035;28;44412;-69
2022/01/08 00:29:24;;;;;;;0.50;0.50;;;;;;;2.44;72.30;100549.44;682559;28;45287;-70
2022/01/08 00:29:46;;;;;;;0.70;0.70;;;;;;;2.43;72.49;100545.13;683429;28;22886;-69
2022/01/08 00:30:08;;;;;;;0.70;0.70;;;;;;;2.43;72.37;100541.59;684214;28;22410;-70
2022/01/08 00:30:30;;;;;;;0.80;0.80;;;;;;;2.43;72.50;100552.25;682519;28;69476;-70
2022/01/08 00:30:51;;;;;;;0.68;0.68;;;;;;;2.44;72.47;100557.44;686453;28;21527;-70
2022/01/08 00:31:12;;;;;;;0.60;0.60;;;;;;;2.45;72.32;100550.31;685330;28;22424;-70
2022/01/08 00:31:34;;;;;;;0.50;0.50;;;;;;;2.43;72.54;100555.78;686233;28;22381;-70
2022/01/08 00:31:55;;;;;;;0.55;0.55;;;;;;;2.41;72.52;100548.88;684257;28;69437;-69
2022/01/08 00:32:16;;;;;;;0.52;0.52;;;;;;;2.43;72.42;100558.44;685976;28;22419;-70
2022/01/08 00:32:38;;;;;;;0.80;0.80;;;;;;;2.43;72.40;100549.56;686017;28;21534;-70
2022/01/08 00:33:01;;;;;;;0.70;0.70;;;;;;;2.40;72.37;100547.16;685929;28;47234;-70
2022/01/08 00:33:22;;;;;;;0.60;0.60;;;;;;;2.37;72.50;100548.28;685110;28;45249;-68
2022/01/08 00:33:44;;;;;;;0.55;0.55;;;;;;;2.36;72.48;100543.91;685424;28;45283;-70
2022/01/08 00:34:05;;;;;;;0.60;0.60;;;;;;;2.33;72.68;100553.00;686370;28;22386;-69
2022/01/08 00:34:27;;;;;;;0.52;0.52;;;;;;;2.35;72.60;100552.88;685897;28;23661;-68
2022/01/08 00:34:48;;;;;;;0.50;0.50;;;;;;;2.34;72.69;100544.06;684795;28;46340;-69
2022/01/08 00:35:11;;;;;;;0.73;0.73;;;;;;;2.35;72.79;100544.88;685839;28;21439;-69
2022/01/08 00:35:33;;;;;;;0.70;0.70;;;;;;;2.33;72.77;100557.50;684339;28;69467;-70
2022/01/08 00:35:55;;;;;;;0.65;0.65;;;;;;;2.31;72.85;100552.31;686116;28;44389;-70
2022/01/08 00:36:16;;;;;;;0.60;0.60;;;;;;;2.32;72.80;100550.47;685107;28;45266;-69
2022/01/08 00:36:37;;;;;;;0.60;0.60;;;;;;;2.32;72.87;100543.34;684942;28;23513;-68
2022/01/08 00:36:58;;;;;;;0.55;0.55;;;;;;;2.35;72.68;100555.53;686270;28;22412;-69
2022/01/08 00:37:19;;;;;;;0.50;0.50;;;;;;;2.34;72.82;100552.03;686126;28;21563;-69
2022/01/08 00:37:41;;;;;;;0.60;0.60;;;;;;;2.33;72.91;100545.00;686158;28;22271;-70
2022/01/08 00:38:03;;;;;;;0.68;0.68;;;;;;;2.32;72.80;100550.47;685032;28;69083;-69
2022/01/08 00:38:24;;;;;;;0.60;0.60;;;;;;;2.31;72.94;100549.63;686233;28;21690;-70
2022/01/08 00:38:46;;;;;;;0.60;0.60;;;;;;;2.31;72.96;100548.81;685691;28;22300;-70
2022/01/08 00:39:07;;;;;;;0.50;0.50;;;;;;;2.32;72.92;100550.47;685559;28;46466;-69
2022/01/08 00:39:28;;;;;;;0.50;0.50;;;;;;;2.34;73.04;100541.38;686270;28;22418;-70
2022/01/08 00:39:49;;;;;;;0.50;0.50;;;;;;;2.35;72.94;100547.56;685477;28;23491;-70
2022/01/08 00:40:12;;;;;;;0.60;0.60;;;;;;;2.36;73.08;100551.09;686287;28;22348;-70
2022/01/08 00:40:33;;;;;;;0.70;0.70;;;;;;;2.34;72.98;100543.22;683781;28;92436;-70
2022/01/08 00:40:54;;;;;;;0.60;0.60;;;;;;;2.34;73.01;100548.53;686361;28;22421;-70
2022/01/08 00:41:16;;;;;;;0.60;0.60;;;;;;;2.32;73.08;100551.34;683479;28;21359;-70
2022/01/08 00:41:37;;;;;;;0.52;0.52;;;;;;;2.33;73.11;100545.00;684599;28;45025;-70
2022/01/08 00:41:59;;;;;;;0.50;0.50;;;;;;;2.32;73.02;100542.47;685548;28;23726;-68
2022/01/08 00:42:20;;;;;;;0.50;0.50;;;;;;;2.34;72.99;100541.38;685171;28;22219;-70
2022/01/08 00:42:42;;;;;;;0.60;0.60;;;;;;;2.36;72.93;100549.25;685798;28;21607;-69
2022/01/08 00:43:03;;;;;;;0.70;0.70;;;;;;;2.37;73.08;100542.09;684527;28;44343;-69
2022/01/08 00:43:25;;;;;;;0.70;0.70;;;;;;;2.36;72.86;100545.75;685529;28;22247;-70
2022/01/08 00:43:46;;;;;;;0.70;0.70;;;;;;;2.36;73.04;100540.44;684398;28;46514;-70
2022/01/08 00:44:08;;;;;;;0.57;0.57;;;;;;;2.32;72.80;100538.00;686509;28;21419;-68
2022/01/08 00:44:29;;;;;;;0.50;0.50;;;;;;;2.32;72.96;100545.13;685454;28;46207;-69
2022/01/08 00:44:50;;;;;;;0.50;0.50;;;;;;;2.31;73.12;100538.97;685295;28;45297;-70
2022/01/08 00:45:11;;;;;;;0.50;0.50;;;;;;;2.28;73.12;100535.72;686095;28;23499;-70
2022/01/08 00:45:33;;;;;;;0.65;0.65;;;;;;;2.27;73.30;100542.88;685487;28;22196;-70
2022/01/08 00:45:54;;;;;;;0.70;0.70;;;;;;;2.30;73.05;100544.44;686023;28;45576;-70
2022/01/08 00:46:15;;;;;;;0.70;0.70;;;;;;;2.29;73.29;100543.59;685081;28;23494;-69
2022/01/08 00:46:37;;;;;;;0.60;0.60;;;;;;;2.26;73.28;100533.19;683739;28;46381;-70
2022/01/08 00:46:59;;;;;;;0.60;0.60;;;;;;;2.24;73.41;100537.81;685489;28;22322;-70
2022/01/08 00:47:20;;;;;;;0.50;0.50;;;;;;;2.22;73.35;100545.06;684437;28;45208;-70
2022/01/08 00:47:41;;;;;;;0.50;0.50;;;;;;;2.21;73.30;100543.41;685813;28;24218;-70
2022/01/08 00:48:03;;;;;;;0.50;0.50;;;;;;;2.21;73.41;100548.72;686805;28;22403;-70
2022/01/08 00:48:25;;;;;;;0.70;0.70;;;;;;;2.19;73.48;100541.81;685115;28;44405;-69
2022/01/08 00:48:46;;;;;;;0.70;0.70;;;;;;;2.17;73.51;100547.28;684500;28;45277;-70
2022/01/08 00:49:07;;;;;;;0.60;0.60;;;;;;;2.17;73.39;100534.78;686021;28;22409;-69
2022/01/08 00:49:29;;;;;;;0.60;0.60;;;;;;;2.16;73.39;100538.44;686458;28;22404;-70
2022/01/08 00:49:51;;;;;;;0.50;0.50;;;;;;;2.15;73.53;100538.59;684842;28;21541;-70
2022/01/08 00:50:13;;;;;;;0.50;0.50;;;;;;;2.15;73.61;100543.91;685881;28;45248;-70
2022/01/08 00:50:34;;;;;;;0.50;0.50;;;;;;;2.15;73.70;100550.06;684505;28;69467;-70
2022/01/08 00:50:55;;;;;;;0.70;0.70;;;;;;;2.15;73.81;100547.41;685671;28;22422;-70
2022/01/08 00:51:17;;;;;;;0.70;0.70;;;;;;;2.15;73.68;100544.75;685123;28;23506;-71
2022/01/08 00:51:39;;;;;;;0.63;0.63;;;;;;;2.14;73.63;100536.88;684434;28;46345;-70
2022/01/08 00:52:00;;;;;;;0.60;0.60;;;;;;;2.14;73.66;100536.88;685510;28;20890;-70
2022/01/08 00:52:21;;;;;;;0.60;0.60;;;;;;;2.13;73.84;100543.16;685223;28;22416;-70
2022/01/08 00:52:43;;;;;;;0.60;0.60;;;;;;;2.12;73.82;100539.66;686116;28;23434;-70
2022/01/08 00:53:04;;;;;;;0.50;0.50;;;;;;;2.10;73.89;100536.28;684625;28;67344;-67
2022/01/08 00:53:25;;;;;;;0.60;0.60;;;;;;;2.11;73.71;100537.97;685895;28;22427;-70
2022/01/08 00:53:47;;;;;;;0.70;0.70;;;;;;;2.11;74.00;100537.97;685522;28;23494;-70
2022/01/08 00:54:09;;;;;;;0.70;0.70;;;;;;;2.07;74.12;100530.34;685140;28;47601;-70
2022/01/08 00:54:30;;;;;;;0.70;0.70;;;;;;;2.08;74.00;100532.06;685518;28;22442;-70
2022/01/08 00:54:51;;;;;;;0.60;0.60;;;;;;;2.06;73.98;100537.50;686155;28;21312;-71
2022/01/08 00:55:13;;;;;;;0.60;0.60;;;;;;;2.08;74.08;100532.91;682494;28;22491;-69
2022/01/08 00:55:34;;;;;;;0.52;0.52;;;;;;;2.06;74.09;100528.69;680329;28;46255;-70
2022/01/08 00:55:55;;;;;;;0.50;0.50;;;;;;;2.08;74.29;100532.06;681616;29;21608;-70
2022/01/08 00:56:16;;;;;;;0.70;0.70;;;;;;;2.08;74.28;100530.22;680743;29;46342;-70
2022/01/08 00:56:37;;;;;;;0.73;0.73;;;;;;;2.09;74.22;100539.94;681078;28;21556;-70
2022/01/08 00:57:00;;;;;;;0.70;0.70;;;;;;;2.10;74.09;100535.44;681735;28;22405;-70
2022/01/08 00:57:30;;;;;;;0.60;0.60;;;;;;;2.11;74.16;100537.13;683720;28;58983;-70
2022/01/08 00:57:51;;;;;;;0.60;0.60;;;;;;;2.11;74.39;100542.47;685904;28;22620;-70
2022/01/08 00:58:13;;;;;;;0.60;0.60;;;;;;;2.12;74.26;100546.81;686240;28;22151;-70
2022/01/08 00:58:34;;;;;;;0.60;0.60;;;;;;;2.10;74.27;100536.28;685448;28;46294;-70
2022/01/08 00:58:55;;;;;;;0.63;0.63;;;;;;;2.10;74.38;100538.97;685328;28;22488;-70
2022/01/08 00:59:16;;;;;;;0.70;0.70;;;;;;;2.10;74.58;100530.97;685253;28;44368;-70
2022/01/08 00:59:37;;;;;;;0.70;0.70;;;;;;;2.11;74.29;100537.13;685934;28;22415;-70
2022/01/08 00:59:59;;;;;;;0.70;0.70;;;;;;;2.13;74.29;100543.16;685923;28;21502;-69
2022/01/08 01:00:20;;;;;;;0.70;0.70;;;;;;;2.14;74.19;100548.38;684871;28;45311;-70
2022/01/08 01:00:41;;;;;;;0.70;0.70;;;;;;;2.14;74.17;100539.53;685922;28;22421;-69
2022/01/08 01:01:02;;;;;;;0.70;0.70;;;;;;;2.14;74.26;100542.22;686065;28;21565;-70
2022/01/08 01:01:27;;;;;;;0.60;0.60;;;;;;;2.17;74.38;100541.94;686505;28;14906;-70
2022/01/08 01:01:48;;;;;;;0.75;0.75;;;;;;;2.17;74.10;100540.13;684410;28;45262;-71
2022/01/08 01:02:09;;;;;;;0.70;0.70;;;;;;;2.16;74.24;100538.44;685484;28;23478;-70
2022/01/08 01:02:31;;;;;;;0.60;0.60;;;;;;;2.17;74.19;100545.47;686004;28;22401;-71
2022/01/08 01:02:53;;;;;;;0.60;0.60;;;;;;;2.20;73.94;100536.38;686255;28;22413;-69
2022/01/08 01:03:14;;;;;;;0.60;0.60;;;;;;;2.20;74.14;100543.53;684371;28;68986;-70
2022/01/08 01:03:36;;;;;;;0.60;0.60;;;;;;;2.23;74.13;100545.94;685931;28;23435;-68
2022/01/08 01:03:57;;;;;;;0.50;0.50;;;;;;;2.24;73.91;100553.81;685554;28;46332;-70
2022/01/08 01:04:19;;;;;;;0.60;0.60;;;;;;;2.23;73.75;100545.94;685877;28;21512;-70
2022/01/08 01:04:40;;;;;;;0.77;0.77;;;;;;;2.23;73.84;100540.59;685062;28;46345;-70
2022/01/08 01:05:02;;;;;;;0.80;0.80;;;;;;;2.24;73.83;100548.47;685458;28;22410;-69
2022/01/08 01:05:25;;;;;;;0.70;0.70;;;;;;;2.24;73.87;100548.47;684198;28;46309;-70
2022/01/08 01:05:46;;;;;;;0.60;0.60;;;;;;;2.23;73.78;100545.94;684132;28;69291;-70
2022/01/08 01:06:07;;;;;;;0.52;0.52;;;;;;;2.22;73.78;100545.06;686484;28;22195;-69
2022/01/08 01:06:28;;;;;;;0.60;0.60;;;;;;;2.20;73.88;100546.19;686262;28;23297;-70
2022/01/08 01:06:51;;;;;;;0.60;0.60;;;;;;;2.19;73.97;100536.50;685032;28;21367;-69
2022/01/08 01:07:12;;;;;;;0.70;0.70;;;;;;;2.16;73.87;100541.13;684366;28;45287;-69
2022/01/08 01:07:33;;;;;;;0.70;0.70;;;;;;;2.19;74.23;100536.50;685617;28;45098;-69
2022/01/08 01:07:54;;;;;;;0.60;0.60;;;;;;;2.18;74.03;100538.31;685589;28;22377;-70
2022/01/08 01:08:16;;;;;;;0.60;0.60;;;;;;;2.19;74.19;100540.00;685780;28;21546;-69
2022/01/08 01:08:37;;;;;;;0.60;0.60;;;;;;;2.19;74.17;100531.16;684908;28;45867;-69
2022/01/08 01:08:59;;;;;;;0.60;0.60;;;;;;;2.20;74.08;100536.38;685194;28;21514;-70
2022/01/08 01:09:20;;;;;;;0.60;0.60;;;;;;;2.21;74.21;100534.53;685727;28;21533;-68
2022/01/08 01:09:42;;;;;;;0.70;0.70;;;;;;;2.21;74.21;100534.53;686042;28;22253;-70
2022/01/08 01:10:03;;;;;;;0.70;0.70;;;;;;;2.18;74.21;100533.00;684970;28;44484;-70
2022/01/08 01:10:24;;;;;;;0.70;0.70;;;;;;;2.19;74.19;100533.84;684599;28;46385;-70
2022/01/08 01:10:46;;;;;;;0.70;0.70;;;;;;;2.19;74.14;100528.50;685938;28;23086;-70
2022/01/08 01:11:08;;;;;;;0.60;0.60;;;;;;;2.20;74.17;100524.88;686090;28;22378;-69
2022/01/08 01:11:29;;;;;;;0.50;0.50;;;;;;;2.21;74.18;100534.53;685494;28;46356;-69
2022/01/08 01:11:51;;;;;;;0.50;0.50;;;;;;;2.21;74.28;100530.06;685062;28;21289;-69
2022/01/08 01:12:13;;;;;;;0.60;0.60;;;;;;;2.23;74.30;100532.63;684146;28;45339;-69
2022/01/08 01:12:34;;;;;;;0.60;0.60;;;;;;;2.20;74.19;100524.88;685530;28;46194;-69
2022/01/08 01:12:56;;;;;;;0.60;0.60;;;;;;;2.22;74.30;100528.25;682241;28;44508;-70
2022/01/08 01:13:18;;;;;;;0.60;0.60;;;;;;;2.21;74.28;100534.53;682154;28;46371;-71
2022/01/08 01:13:39;;;;;;;0.60;0.60;;;;;;;2.20;74.28;100528.38;683438;28;23380;-71
2022/01/08 01:14:00;;;;;;;0.50;0.50;;;;;;;2.22;74.18;100525.59;682181;28;45995;-69
2022/01/08 01:14:22;;;;;;;0.50;0.50;;;;;;;2.22;74.06;100526.41;683418;28;24328;-70
2022/01/08 01:14:43;;;;;;;0.60;0.60;;;;;;;2.21;74.12;100529.22;682481;28;44402;-71
2022/01/08 01:15:06;;;;;;;0.70;0.70;;;;;;;2.21;74.12;100527.41;683230;28;22423;-69
2022/01/08 01:15:28;;;;;;;0.70;0.70;;;;;;;2.22;74.17;100522.91;682096;28;44276;-70
2022/01/08 01:15:49;;;;;;;0.60;0.60;;;;;;;2.23;74.13;100524.63;682757;28;46510;-68
2022/01/08 01:16:10;;;;;;;0.55;0.55;;;;;;;2.22;74.23;100525.59;682683;28;22470;-70
2022/01/08 01:16:31;;;;;;;0.60;0.60;;;;;;;2.21;74.18;100527.41;683136;28;46324;-71
2022/01/08 01:16:53;;;;;;;0.50;0.50;;;;;;;2.21;74.37;100523.88;684955;28;23461;-69
2022/01/08 01:17:14;;;;;;;0.50;0.50;;;;;;;2.23;74.19;100521.97;681456;28;46337;-69
2022/01/08 01:17:35;;;;;;;0.63;0.63;;;;;;;2.23;74.18;100528.13;683247;28;23712;-70
2022/01/08 01:17:57;;;;;;;0.70;0.70;;;;;;;2.25;74.20;100538.66;683109;28;21526;-70
2022/01/08 01:18:18;;;;;;;0.70;0.70;;;;;;;2.25;74.21;100528.81;682020;28;46446;-70
2022/01/08 01:18:39;;;;;;;0.63;0.63;;;;;;;2.26;74.01;100521.69;683301;28;23481;-70
2022/01/08 01:19:02;;;;;;;0.60;0.60;;;;;;;2.27;74.17;100526.03;682731;28;22398;-70
2022/01/08 01:19:24;;;;;;;0.50;0.50;;;;;;;2.26;74.06;100530.53;686091;28;15857;-70
2022/01/08 01:19:47;;;;;;;0.50;0.50;;;;;;;2.25;74.07;100522.66;685714;28;44356;-70
2022/01/08 01:20:10;;;;;;;0.60;0.60;;;;;;;2.23;74.08;100528.13;684154;28;69438;-70
2022/01/08 01:20:33;;;;;;;0.70;0.70;;;;;;;2.23;74.22;100524.63;683767;28;68160;-71
2022/01/08 01:20:55;;;;;;;0.70;0.70;;;;;;;2.23;74.21;100521.97;684974;28;46314;-70
2022/01/08 01:21:16;;;;;;;0.60;0.60;;;;;;;2.23;74.18;100522.78;685113;28;46349;-70
2022/01/08 01:21:37;;;;;;;0.50;0.50;;;;;;;2.21;74.05;100521.22;685997;28;23472;-70
2022/01/08 01:22:00;;;;;;;0.57;0.57;;;;;;;2.23;74.25;100521.97;686428;28;21610;-70
2022/01/08 01:22:23;;;;;;;0.50;0.50;;;;;;;2.23;73.97;100521.97;683921;28;68381;-70
2022/01/08 01:22:53;;;;;;;0.50;0.50;;;;;;;2.26;74.26;100530.53;683176;28;92160;-69
2022/01/08 01:23:18;;;;;;;0.70;0.70;;;;;;;2.27;74.25;100520.72;680824;28;160731;-70
2022/01/08 01:23:42;;;;;;;0.70;0.70;;;;;;;2.26;74.29;100519.88;681935;28;138170;-69
2022/01/08 01:24:11;;;;;;;0.60;0.60;;;;;;;2.28;74.09;100522.41;683615;28;92876;-71
2022/01/08 01:24:37;;;;;;;0.60;0.60;;;;;;;2.28;74.08;100533.91;682113;28;137859;-70
2022/01/08 01:25:04;;;;;;;0.60;0.60;;;;;;;2.29;73.99;100529.44;684604;28;67300;-70
2022/01/08 01:25:31;;;;;;;0.50;0.50;;;;;;;2.30;74.14;100523.13;682017;28;137975;-70
2022/01/08 01:25:56;;;;;;;0.60;0.60;;;;;;;2.26;74.04;100522.53;682289;28;137944;-71
2022/01/08 01:26:22;;;;;;;0.70;0.70;;;;;;;2.28;74.27;100523.25;682679;28;113684;-70
2022/01/08 01:27:02;;;;;;;0.60;0.60;;;;;;;2.29;74.09;100522.28;681163;28;138065;-70
2022/01/08 01:28:24;;;;;;;0.50;0.50;;;;;;;2.31;74.16;100522.16;681668;28;136269;-70
2022/01/08 01:28:52;;;;;;;0.70;0.70;;;;;;;2.31;74.01;100516.81;680991;28;137661;-70
2022/01/08 01:29:28;;;;;;;0.70;0.70;;;;;;;2.29;74.05;100516.13;681668;28;138516;-70
2022/01/08 01:29:55;;;;;;;0.60;0.60;;;;;;;2.28;74.08;100515.25;682027;28;137731;-69
2022/01/08 01:30:25;;;;;;;0.60;0.60;;;;;;;2.31;73.98;100523.00;681709;28;138557;-70
2022/01/08 01:41:05;;;;;;;0.50;0.50;;;;;;;2.30;74.11;100515.13;681673;28;136245;-70
2022/01/08 01:41:21;;;;;;;0.50;0.50;;;;;;;2.32;73.80;100510.50;682551;28;137695;-69
2022/01/08 01:41:54;;;;;;;0.50;0.50;;;;;;;2.28;73.96;100501.09;678593;28;137236;-69
2022/01/08 01:43:23;;;;;;;0.60;0.60;;;;;;;2.30;73.87;100505.31;674180;28;137494;-69
2022/01/08 01:47:07;;;;;;;0.50;0.50;;;;;;;2.33;73.90;100501.53;679973;28;157033;-70
2022/01/08 01:47:32;;;;;;;0.70;0.70;;;;;;;2.32;73.88;100503.38;685371;28;45307;-69
2022/01/08 01:47:54;;;;;;;0.70;0.70;;;;;;;2.33;73.94;100504.19;682772;28;116121;-69
2022/01/08 01:48:15;;;;;;;0.60;0.60;;;;;;;2.32;73.75;100505.16;685495;28;23586;-70
2022/01/08 01:48:36;;;;;;;0.60;0.60;;;;;;;2.32;73.89;100507.81;685495;28;46539;-70
2022/01/08 01:48:57;;;;;;;0.50;0.50;;;;;;;2.31;73.80;100507.00;685941;28;21413;-69
2022/01/08 01:49:18;;;;;;;0.50;0.50;;;;;;;2.30;73.72;100505.31;685434;28;22364;-69
2022/01/08 01:49:43;;;;;;;0.57;0.57;;;;;;;2.32;74.00;100499.84;685471;28;22561;-70
2022/01/08 01:50:07;;;;;;;0.70;0.70;;;;;;;2.30;73.93;100501.78;682655;28;113633;-69
2022/01/08 01:50:28;;;;;;;0.73;0.73;;;;;;;2.30;73.85;100507.13;683738;28;92148;-70
2022/01/08 01:50:50;;;;;;;0.80;0.80;;;;;;;2.29;73.82;100502.78;685219;28;22391;-69
2022/01/08 01:51:18;;;;;;;0.70;0.70;;;;;;;2.26;73.85;100503.88;684290;28;46816;-70
2022/01/08 01:51:39;;;;;;;0.63;0.63;;;;;;;2.26;73.94;100503.88;681335;28;138038;-69
2022/01/08 01:52:02;;;;;;;0.50;0.50;;;;;;;2.26;73.94;100503.88;685612;28;23404;-70
2022/01/08 01:52:23;;;;;;;0.50;0.50;;;;;;;2.24;73.94;100497.84;685334;28;46349;-69
2022/01/08 01:52:45;;;;;;;0.60;0.60;;;;;;;2.24;74.13;100504.97;685185;28;21542;-70
2022/01/08 01:53:06;;;;;;;0.70;0.70;;;;;;;2.25;74.12;100502.19;684435;28;67587;-70
2022/01/08 01:53:27;;;;;;;0.70;0.70;;;;;;;2.26;73.90;100503.03;686279;28;21532;-69
2022/01/08 01:53:48;;;;;;;0.60;0.60;;;;;;;2.23;73.93;100492.66;683942;28;45304;-69
2022/01/08 01:54:10;;;;;;;0.60;0.60;;;;;;;2.23;74.25;100504.13;685572;28;22234;-70
2022/01/08 01:54:33;;;;;;;0.50;0.50;;;;;;;2.22;74.33;100497.09;685083;28;46340;-69
2022/01/08 01:54:54;;;;;;;0.50;0.50;;;;;;;2.24;74.18;100503.19;684647;28;69316;-69
2022/01/08 01:55:15;;;;;;;0.40;0.40;;;;;;;2.24;74.19;100499.66;685779;28;23483;-69
2022/01/08 01:55:36;;;;;;;0.60;0.60;;;;;;;2.21;74.15;100498.09;685927;28;22400;-70
2022/01/08 01:55:58;;;;;;;0.70;0.70;;;;;;;2.24;74.19;100499.66;685993;28;23431;-69
2022/01/08 01:56:20;;;;;;;0.60;0.60;;;;;;;2.22;74.43;100491.78;684941;28;46420;-70
2022/01/08 01:56:41;;;;;;;0.60;0.60;;;;;;;2.26;74.27;100500.38;684777;28;44330;-70
2022/01/08 01:57:04;;;;;;;0.50;0.50;;;;;;;2.26;74.17;100503.03;686055;28;1352;-69
2022/01/08 01:57:27;;;;;;;0.50;0.50;;;;;;;2.27;74.11;100504.72;684389;28;70218;-70
2022/01/08 01:57:48;;;;;;;0.40;0.40;;;;;;;2.26;74.17;100495.06;683947;28;69254;-69
2022/01/08 01:58:09;;;;;;;0.50;0.50;;;;;;;2.26;74.28;100497.72;685849;28;21324;-69
2022/01/08 01:58:30;;;;;;;0.70;0.70;;;;;;;2.26;74.13;100503.88;686435;28;21547;-69
2022/01/08 01:58:52;;;;;;;0.60;0.60;;;;;;;2.25;74.22;100499.50;685802;28;22396;-69
2022/01/08 01:59:14;;;;;;;0.60;0.60;;;;;;;2.25;74.03;100496.84;684462;28;46389;-69
2022/01/08 01:59:36;;;;;;;0.60;0.60;;;;;;;2.26;74.22;100495.06;685586;28;46395;-69
2022/01/08 01:59:59;;;;;;;0.50;0.50;;;;;;;2.27;74.25;100496.72;683857;28;92135;-69
2022/01/08 02:00:21;;;;;;;0.50;0.50;;;;;;;2.27;74.25;100502.06;685534;28;21555;-69
2022/01/08 02:00:43;;;;;;;0.50;0.50;;;;;;;2.26;74.24;100505.72;686059;28;44345;-69